Time;durP1;ratioP1;P1;durP2;ratioP2;P2;SDS_P1;SDS_P2;PMS_P1;PMS_P2;Temp;Humidity;BMP_temperature;BMP_pressure;BME280_temperature;BME280_humidity;BME280_pressure;Samples;Min_cycle;Max_cycle;Signal;HPM_P1;HPM_P2
2022/08/28 00:00:55;;;;;;;;;;;14.00;99.90;;;;;;5072978;28;19928;-46
2022/08/28 00:03:20;;;;;;;;;;;13.90;99.90;;;;;;5072951;28;19924;-49
2022/08/28 00:05:46;;;;;;;;;;;14.00;99.90;;;;;;5072590;28;20386;-48
2022/08/28 00:08:13;;;;;;;;;;;14.00;99.90;;;;;;5072776;28;19916;-46
2022/08/28 00:10:39;;;;;;;;;;;13.90;99.90;;;;;;5072174;28;20009;-47
2022/08/28 00:13:06;;;;;;;;;;;13.90;99.90;;;;;;5072945;28;19979;-46
2022/08/28 00:15:33;;;;;;;;;;;13.90;99.90;;;;;;5072314;28;19920;-46
2022/08/28 00:17:59;;;;;;;;;;;13.80;99.90;;;;;;5072609;28;19963;-50
2022/08/28 00:20:26;;;;;;;;;;;13.90;99.90;;;;;;5071248;28;19925;-46
2022/08/28 00:22:53;;;;;;;;;;;13.90;99.90;;;;;;5072683;28;20275;-50
2022/08/28 00:25:22;;;;;;;;;;;13.80;99.90;;;;;;5072487;28;19920;-48
2022/08/28 00:27:52;;;;;;;;;;;13.80;99.90;;;;;;5072396;28;19998;-47
2022/08/28 00:30:21;;;;;;;;;;;13.80;99.90;;;;;;5070575;28;19926;-48
2022/08/28 00:32:46;;;;;;;;;;;13.70;99.90;;;;;;5072066;28;19916;-50
2022/08/28 00:35:12;;;;;;;;;;;13.80;99.90;;;;;;5072166;28;19920;-48
2022/08/28 00:37:38;;;;;;;;;;;13.70;99.90;;;;;;5072304;28;19916;-47
2022/08/28 00:40:06;;;;;;;;;;;13.70;99.90;;;;;;5072330;28;20914;-46
2022/08/28 00:42:35;;;;;;;;;;;13.70;99.90;;;;;;5071640;28;19916;-48
2022/08/28 00:45:01;;;;;;;;;;;13.70;99.90;;;;;;5071727;28;20214;-47
2022/08/28 00:47:27;;;;;;;;;;;13.60;99.90;;;;;;5070500;28;20361;-47
2022/08/28 00:49:54;;;;;;;;;;;13.60;99.90;;;;;;5071484;28;19951;-48
2022/08/28 00:52:20;;;;;;;;;;;13.60;99.90;;;;;;5071672;28;20859;-45
2022/08/28 00:54:47;;;;;;;;;;;13.60;99.90;;;;;;5071810;28;19917;-46
2022/08/28 00:57:17;;;;;;;;;;;13.50;99.90;;;;;;5071469;28;19916;-46
2022/08/28 00:59:43;;;;;;;;;;;13.50;99.90;;;;;;5072104;28;20007;-47
2022/08/28 01:02:08;;;;;;;;;;;13.50;99.90;;;;;;5070500;28;20670;-51
2022/08/28 01:04:34;;;;;;;;;;;13.50;99.90;;;;;;5071561;28;20011;-49
2022/08/28 01:07:04;;;;;;;;;;;13.50;99.90;;;;;;5071610;28;20398;-47
2022/08/28 01:09:30;;;;;;;;;;;13.60;99.90;;;;;;5071634;28;20248;-45
2022/08/28 01:12:07;;;;;;;;;;;13.40;99.90;;;;;;5069611;28;19924;-45
2022/08/28 01:14:35;;;;;;;;;;;13.50;99.90;;;;;;5071482;28;19916;-47
2022/08/28 01:17:01;;;;;;;;;;;13.50;99.90;;;;;;5071192;28;19923;-50
2022/08/28 01:19:32;;;;;;;;;;;13.30;99.90;;;;;;5071202;28;20010;-45
2022/08/28 01:22:08;;;;;;;;;;;13.40;99.90;;;;;;5071473;28;19927;-47
2022/08/28 01:24:34;;;;;;;;;;;13.30;99.90;;;;;;5071249;28;19923;-46
2022/08/28 01:27:00;;;;;;;;;;;13.20;99.90;;;;;;5070887;28;19927;-48
2022/08/28 01:29:28;;;;;;;;;;;13.30;99.90;;;;;;5068505;28;19916;-50
2022/08/28 01:31:53;;;;;;;;;;;13.30;99.90;;;;;;5071321;28;19916;-46
2022/08/28 01:34:20;;;;;;;;;;;13.30;99.90;;;;;;5071184;28;19965;-46
2022/08/28 01:36:47;;;;;;;;;;;13.20;99.90;;;;;;5070696;28;19972;-45
2022/08/28 01:39:14;;;;;;;;;;;13.30;99.90;;;;;;5070907;28;19926;-45
2022/08/28 01:41:41;;;;;;;;;;;13.30;99.90;;;;;;5069092;28;19920;-47
2022/08/28 01:44:06;;;;;;;;;;;13.20;99.90;;;;;;5071204;28;20283;-47
2022/08/28 01:46:32;;;;;;;;;;;13.20;99.90;;;;;;5070210;28;19929;-46
2022/08/28 01:48:59;;;;;;;;;;;13.20;99.90;;;;;;5071168;28;20022;-46
2022/08/28 01:51:24;;;;;;;;;;;13.10;99.90;;;;;;5071042;28;19927;-45
2022/08/28 01:53:50;;;;;;;;;;;13.10;99.90;;;;;;5070278;28;20283;-47
2022/08/28 01:56:16;;;;;;;;;;;13.20;99.90;;;;;;5069555;28;19921;-46
2022/08/28 01:58:42;;;;;;;;;;;13.10;99.90;;;;;;5070871;28;19921;-45
2022/08/28 02:01:09;;;;;;;;;;;13.10;99.90;;;;;;5069508;28;19924;-48
2022/08/28 02:03:35;;;;;;;;;;;13.10;99.90;;;;;;5070867;28;19920;-45
2022/08/28 02:06:00;;;;;;;;;;;13.10;99.90;;;;;;5070362;28;20368;-48
2022/08/28 02:08:26;;;;;;;;;;;13.10;99.90;;;;;;5070176;28;19965;-49
2022/08/28 02:10:51;;;;;;;;;;;13.10;99.90;;;;;;5068403;28;19928;-45
2022/08/28 02:13:17;;;;;;;;;;;13.00;99.90;;;;;;5070747;28;19916;-48
2022/08/28 02:15:43;;;;;;;;;;;13.20;99.90;;;;;;5070594;28;19920;-45
2022/08/28 02:18:09;;;;;;;;;;;13.00;99.90;;;;;;5070452;28;19916;-45
2022/08/28 02:20:35;;;;;;;;;;;13.00;99.90;;;;;;5070672;28;19966;-46
2022/08/28 02:23:01;;;;;;;;;;;13.00;99.90;;;;;;5070689;28;20314;-46
2022/08/28 02:25:27;;;;;;;;;;;13.00;99.90;;;;;;5070538;28;19950;-49
2022/08/28 02:27:52;;;;;;;;;;;13.00;99.90;;;;;;5068935;28;19965;-45
2022/08/28 02:30:19;;;;;;;;;;;13.00;99.90;;;;;;5070459;28;19924;-47
2022/08/28 02:32:47;;;;;;;;;;;12.90;99.90;;;;;;5070473;28;19917;-47
2022/08/28 02:35:15;;;;;;;;;;;12.90;99.90;;;;;;5070086;28;19920;-46
2022/08/28 02:37:43;;;;;;;;;;;12.90;99.90;;;;;;5070384;28;19916;-47
2022/08/28 02:40:09;;;;;;;;;;;12.90;99.90;;;;;;5069040;28;19916;-46
2022/08/28 02:42:35;;;;;;;;;;;12.90;99.90;;;;;;5069573;28;19920;-48
2022/08/28 02:45:00;;;;;;;;;;;12.80;99.90;;;;;;5069973;28;19923;-46
2022/08/28 02:47:26;;;;;;;;;;;12.80;99.90;;;;;;5070325;28;20058;-49
2022/08/28 02:49:52;;;;;;;;;;;12.90;99.90;;;;;;5070190;28;19931;-47
2022/08/28 02:52:22;;;;;;;;;;;12.80;99.90;;;;;;5068725;28;19927;-46
2022/08/28 02:54:48;;;;;;;;;;;12.90;99.90;;;;;;5068977;28;19920;-48
2022/08/28 02:57:13;;;;;;;;;;;12.80;99.90;;;;;;5069069;28;20252;-46
2022/08/28 02:59:39;;;;;;;;;;;12.90;99.90;;;;;;5070171;28;19916;-48
2022/08/28 03:02:06;;;;;;;;;;;12.80;99.90;;;;;;5070112;28;20410;-46
2022/08/28 03:04:35;;;;;;;;;;;12.80;99.90;;;;;;5069474;28;20023;-48
2022/08/28 03:07:01;;;;;;;;;;;12.80;99.90;;;;;;5070263;28;19928;-49
2022/08/28 03:09:27;;;;;;;;;;;12.80;99.90;;;;;;5069623;28;19960;-51
2022/08/28 03:11:53;;;;;;;;;;;12.70;99.90;;;;;;5070268;28;20440;-48
2022/08/28 03:14:19;;;;;;;;;;;12.80;99.90;;;;;;5073833;28;20011;-46
2022/08/28 03:16:45;;;;;;;;;;;12.70;99.90;;;;;;5073749;28;19979;-48
2022/08/28 03:19:10;;;;;;;;;;;12.70;99.90;;;;;;5073514;28;20014;-48
2022/08/28 03:21:36;;;;;;;;;;;12.70;99.90;;;;;;5074084;28;19930;-48
2022/08/28 03:24:02;;;;;;;;;;;12.70;99.90;;;;;;5072251;28;19985;-46
2022/08/28 03:26:28;;;;;;;;;;;12.70;99.90;;;;;;5072155;28;19965;-46
2022/08/28 03:28:56;;;;;;;;;;;12.60;99.90;;;;;;5073178;28;19923;-48
2022/08/28 03:31:23;;;;;;;;;;;12.70;99.90;;;;;;5073526;28;20406;-49
2022/08/28 03:33:48;;;;;;;;;;;12.60;99.90;;;;;;5073538;28;19920;-49
2022/08/28 03:36:15;;;;;;;;;;;12.50;99.90;;;;;;5073480;28;19917;-46
2022/08/28 03:38:41;;;;;;;;;;;12.60;99.90;;;;;;5073555;28;19916;-49
2022/08/28 03:41:14;;;;;;;;;;;12.60;99.90;;;;;;5072814;28;20452;-47
2022/08/28 03:43:40;;;;;;;;;;;12.60;99.90;;;;;;5073073;28;19923;-45
2022/08/28 03:46:06;;;;;;;;;;;12.60;99.90;;;;;;5072818;28;19928;-45
2022/08/28 03:48:33;;;;;;;;;;;12.50;99.90;;;;;;5072984;28;20054;-48
2022/08/28 03:50:59;;;;;;;;;;;12.50;99.90;;;;;;5072980;28;19923;-49
2022/08/28 03:53:26;;;;;;;;;;;12.40;99.90;;;;;;5073189;28;19924;-46
2022/08/28 03:55:52;;;;;;;;;;;12.50;99.90;;;;;;5072654;28;19923;-49
2022/08/28 03:58:18;;;;;;;;;;;12.50;99.90;;;;;;5073150;28;19920;-49
2022/08/28 04:00:44;;;;;;;;;;;12.40;99.90;;;;;;5071663;28;19923;-49
2022/08/28 04:03:12;;;;;;;;;;;12.50;99.90;;;;;;5072827;28;19982;-48
2022/08/28 04:05:41;;;;;;;;;;;12.50;99.90;;;;;;5073061;28;20256;-48
2022/08/28 04:08:07;;;;;;;;;;;12.40;99.90;;;;;;5072442;28;19920;-49
2022/08/28 04:10:33;;;;;;;;;;;12.40;99.90;;;;;;5072782;28;19922;-49
2022/08/28 04:12:59;;;;;;;;;;;12.40;99.90;;;;;;5072403;28;19968;-48
2022/08/28 04:15:25;;;;;;;;;;;12.50;99.90;;;;;;5072748;28;19966;-50
2022/08/28 04:17:54;;;;;;;;;;;12.50;99.90;;;;;;5072779;28;19916;-47
2022/08/28 04:20:19;;;;;;;;;;;12.40;99.90;;;;;;5072627;28;19942;-48
2022/08/28 04:22:48;;;;;;;;;;;12.40;99.90;;;;;;5072586;28;19920;-48
2022/08/28 04:25:14;;;;;;;;;;;12.40;99.90;;;;;;5071677;28;20379;-46
2022/08/28 04:27:40;;;;;;;;;;;12.40;99.90;;;;;;5072011;28;19931;-45
2022/08/28 04:30:06;;;;;;;;;;;12.40;99.90;;;;;;5072172;28;19924;-48
2022/08/28 04:32:35;;;;;;;;;;;12.40;99.90;;;;;;5072330;28;19940;-47
2022/08/28 04:35:01;;;;;;;;;;;12.30;99.90;;;;;;5071988;28;20019;-47
2022/08/28 04:37:26;;;;;;;;;;;12.30;99.90;;;;;;5072289;28;20015;-49
2022/08/28 04:39:52;;;;;;;;;;;12.30;99.90;;;;;;5072247;28;20114;-48
2022/08/28 04:42:18;;;;;;;;;;;12.30;99.90;;;;;;5071988;28;19920;-47
2022/08/28 04:44:43;;;;;;;;;;;12.40;99.90;;;;;;5071654;28;19924;-45
2022/08/28 04:47:09;;;;;;;;;;;12.30;99.90;;;;;;5070786;28;19927;-48
2022/08/28 04:49:35;;;;;;;;;;;12.30;99.90;;;;;;5071682;28;19954;-48
2022/08/28 04:52:00;;;;;;;;;;;12.30;99.90;;;;;;5072151;28;19924;-45
2022/08/28 04:54:26;;;;;;;;;;;12.40;99.90;;;;;;5071921;28;19943;-48
2022/08/28 04:56:51;;;;;;;;;;;12.30;99.90;;;;;;5072048;28;19917;-44
2022/08/28 04:59:17;;;;;;;;;;;12.30;99.90;;;;;;5071711;28;19920;-47
2022/08/28 05:01:43;;;;;;;;;;;12.30;99.90;;;;;;5070577;28;19917;-47
2022/08/28 05:04:10;;;;;;;;;;;12.50;99.90;;;;;;5071380;28;19934;-48
2022/08/28 05:06:42;;;;;;;;;;;12.40;99.90;;;;;;5071685;28;20028;-46
2022/08/28 05:09:07;;;;;;;;;;;12.50;99.90;;;;;;5071709;28;19965;-49
2022/08/28 05:11:33;;;;;;;;;;;12.50;99.90;;;;;;5071062;28;19917;-48
2022/08/28 05:13:59;;;;;;;;;;;12.70;99.90;;;;;;5071254;28;19964;-49
2022/08/28 05:16:25;;;;;;;;;;;12.70;99.90;;;;;;5071090;28;19963;-48
2022/08/28 05:18:50;;;;;;;;;;;12.80;99.90;;;;;;5071476;28;19966;-49
2022/08/28 05:21:21;;;;;;;;;;;12.90;99.90;;;;;;5071210;28;19916;-49
2022/08/28 05:23:48;;;;;;;;;;;13.00;99.90;;;;;;5071206;28;19923;-47
2022/08/28 05:26:14;;;;;;;;;;;12.90;99.90;;;;;;5071586;28;19916;-47
2022/08/28 05:28:40;;;;;;;;;;;12.90;99.90;;;;;;5070991;28;19924;-46
2022/08/28 05:31:14;;;;;;;;;;;13.00;99.90;;;;;;5071291;28;19931;-44
2022/08/28 05:33:41;;;;;;;;;;;12.90;99.90;;;;;;5071224;28;19924;-50
2022/08/28 05:36:06;;;;;;;;;;;13.00;99.90;;;;;;5071094;28;19950;-46
2022/08/28 05:38:33;;;;;;;;;;;13.00;99.90;;;;;;5071130;28;20003;-47
2022/08/28 05:40:59;;;;;;;;;;;13.00;99.90;;;;;;5070660;28;19916;-46
2022/08/28 05:43:25;;;;;;;;;;;13.10;99.90;;;;;;5069450;28;19920;-45
2022/08/28 05:45:57;;;;;;;;;;;12.60;99.90;;;;;;5070493;28;20356;-46
2022/08/28 05:48:22;;;;;;;;;;;13.20;99.90;;;;;;5070931;28;19927;-45
2022/08/28 05:50:48;;;;;;;;;;;13.20;99.90;;;;;;5070951;28;19925;-47
2022/08/28 05:53:14;;;;;;;;;;;13.20;99.90;;;;;;5070855;28;20019;-47
2022/08/28 05:55:40;;;;;;;;;;;13.30;99.90;;;;;;5070658;28;19917;-49
2022/08/28 05:58:27;;;;;;;;;;;13.40;99.90;;;;;;5052932;28;19931;-46
2022/08/28 06:00:51;;;;;;;;;;;13.40;99.90;;;;;;5069116;28;19983;-49
2022/08/28 06:03:16;;;;;;;;;;;13.60;99.90;;;;;;5069193;28;19923;-46
2022/08/28 06:05:42;;;;;;;;;;;13.60;99.90;;;;;;5069176;28;20371;-48
2022/08/28 06:08:07;;;;;;;;;;;13.70;99.90;;;;;;5070778;28;19931;-49
2022/08/28 06:10:36;;;;;;;;;;;13.70;99.90;;;;;;5070550;28;19916;-45
2022/08/28 06:13:02;;;;;;;;;;;13.80;99.90;;;;;;5070270;28;19924;-46
2022/08/28 06:15:27;;;;;;;;;;;13.80;99.90;;;;;;5070587;28;19916;-47
2022/08/28 06:17:53;;;;;;;;;;;13.90;99.90;;;;;;5068999;28;19923;-47
2022/08/28 06:20:18;;;;;;;;;;;14.00;99.90;;;;;;5069009;28;20280;-46
2022/08/28 06:22:44;;;;;;;;;;;14.20;99.90;;;;;;5070718;28;19916;-46
2022/08/28 06:25:13;;;;;;;;;;;14.20;99.90;;;;;;5070481;28;19974;-49
2022/08/28 06:27:38;;;;;;;;;;;14.30;99.90;;;;;;5070562;28;19920;-49
2022/08/28 06:30:04;;;;;;;;;;;14.40;99.90;;;;;;5070176;28;19995;-47
2022/08/28 06:32:30;;;;;;;;;;;14.40;99.90;;;;;;5070151;28;19923;-48
2022/08/28 06:34:56;;;;;;;;;;;14.60;99.90;;;;;;5070053;28;19917;-46
2022/08/28 06:37:21;;;;;;;;;;;14.50;99.90;;;;;;5070627;28;20011;-46
2022/08/28 06:39:47;;;;;;;;;;;14.70;99.90;;;;;;5070450;28;19920;-48
2022/08/28 06:42:12;;;;;;;;;;;14.70;99.90;;;;;;5069930;28;20007;-45
2022/08/28 06:44:38;;;;;;;;;;;14.80;99.90;;;;;;5070119;28;19939;-47
2022/08/28 06:47:04;;;;;;;;;;;14.90;99.90;;;;;;5070830;28;19924;-50
2022/08/28 06:49:29;;;;;;;;;;;15.00;99.90;;;;;;5074375;28;19920;-47
2022/08/28 06:51:55;;;;;;;;;;;14.90;99.90;;;;;;5074227;28;19920;-49
2022/08/28 06:54:21;;;;;;;;;;;15.10;99.90;;;;;;5073817;28;19920;-47
2022/08/28 06:56:47;;;;;;;;;;;15.10;99.90;;;;;;5074085;28;19920;-46
2022/08/28 06:59:13;;;;;;;;;;;15.20;99.90;;;;;;5074114;28;19924;-50
2022/08/28 07:01:38;;;;;;;;;;;15.20;99.90;;;;;;5074113;28;20299;-46
2022/08/28 07:04:06;;;;;;;;;;;15.30;99.90;;;;;;5073651;28;19986;-48
2022/08/28 07:06:33;;;;;;;;;;;15.40;99.90;;;;;;5074036;28;19920;-51
2022/08/28 07:08:59;;;;;;;;;;;15.40;99.90;;;;;;5073632;28;19920;-46
2022/08/28 07:11:26;;;;;;;;;;;15.50;99.90;;;;;;5073352;28;19916;-48
2022/08/28 07:13:52;;;;;;;;;;;15.60;99.90;;;;;;5073917;28;19928;-49
2022/08/28 07:16:20;;;;;;;;;;;15.70;99.90;;;;;;5073792;28;19916;-49
2022/08/28 07:18:45;;;;;;;;;;;15.70;99.90;;;;;;5072167;28;19981;-48
2022/08/28 07:21:12;;;;;;;;;;;15.80;99.90;;;;;;5072489;28;19917;-47
2022/08/28 07:23:38;;;;;;;;;;;15.90;99.90;;;;;;5073567;28;20371;-47
2022/08/28 07:26:05;;;;;;;;;;;16.00;99.90;;;;;;5073610;28;19916;-49
2022/08/28 07:28:31;;;;;;;;;;;16.00;99.90;;;;;;5073603;28;19924;-48
2022/08/28 07:31:01;;;;;;;;;;;16.10;99.90;;;;;;5073664;28;20015;-50
2022/08/28 07:33:27;;;;;;;;;;;16.20;99.90;;;;;;5073394;28;20015;-45
2022/08/28 07:35:53;;;;;;;;;;;16.20;99.90;;;;;;5073527;28;20328;-45
2022/08/28 07:38:19;;;;;;;;;;;16.40;99.90;;;;;;5072096;28;19916;-49
2022/08/28 07:40:45;;;;;;;;;;;16.50;99.90;;;;;;5073121;28;19927;-46
2022/08/28 07:46:05;;;;;;;;;;;16.60;99.90;;;;;;5072239;28;19920;-47
2022/08/28 07:48:32;;;;;;;;;;;16.70;99.90;;;;;;5073206;28;19943;-48
2022/08/28 07:50:57;;;;;;;;;;;16.80;99.90;;;;;;5073315;28;20011;-49
2022/08/28 07:53:23;;;;;;;;;;;16.90;99.90;;;;;;5073064;28;20015;-50
2022/08/28 07:55:50;;;;;;;;;;;17.00;99.90;;;;;;5072778;28;19965;-48
2022/08/28 07:58:16;;;;;;;;;;;17.00;99.90;;;;;;5071971;28;19955;-47
2022/08/28 08:00:41;;;;;;;;;;;17.10;99.90;;;;;;5072478;28;19982;-50
2022/08/28 08:03:07;;;;;;;;;;;17.10;99.90;;;;;;5070168;28;20446;-49
2022/08/28 08:05:33;;;;;;;;;;;17.10;99.90;;;;;;5072949;28;19916;-49
2022/08/28 08:07:58;;;;;;;;;;;17.10;99.90;;;;;;5073082;28;19948;-48
2022/08/28 08:10:24;;;;;;;;;;;17.20;99.90;;;;;;5072747;28;19916;-46
2022/08/28 08:12:49;;;;;;;;;;;17.30;99.90;;;;;;5072089;28;19920;-47
2022/08/28 08:15:16;;;;;;;;;;;17.50;99.90;;;;;;5072021;28;20276;-47
2022/08/28 08:17:41;;;;;;;;;;;17.60;99.90;;;;;;5072891;28;20010;-46
2022/08/28 08:20:07;;;;;;;;;;;17.70;99.90;;;;;;5072448;28;20320;-47
2022/08/28 08:22:33;;;;;;;;;;;17.80;99.90;;;;;;5072722;28;19916;-48
2022/08/28 08:24:59;;;;;;;;;;;17.90;99.90;;;;;;5071028;28;19965;-50
2022/08/28 08:27:26;;;;;;;;;;;17.90;99.90;;;;;;5072146;28;19931;-48
2022/08/28 08:29:51;;;;;;;;;;;18.10;99.90;;;;;;5072608;28;19927;-46
2022/08/28 08:32:17;;;;;;;;;;;18.00;99.90;;;;;;5072196;28;20371;-49
2022/08/28 08:34:48;;;;;;;;;;;18.20;99.90;;;;;;5071300;28;20553;-48
2022/08/28 08:37:13;;;;;;;;;;;18.40;99.90;;;;;;5071535;28;19975;-46
2022/08/28 08:39:40;;;;;;;;;;;18.40;99.90;;;;;;5070593;28;19956;-46
2022/08/28 08:42:08;;;;;;;;;;;18.40;99.90;;;;;;5071973;28;20038;-45
2022/08/28 08:44:41;;;;;;;;;;;18.50;99.90;;;;;;5070680;28;20367;-49
2022/08/28 08:47:16;;;;;;;;;;;18.60;99.90;;;;;;5071753;28;19959;-46
2022/08/28 08:49:51;;;;;;;;;;;18.60;99.90;;;;;;5072119;28;19916;-47
2022/08/28 08:52:37;;;;;;;;;;;18.50;99.90;;;;;;5072075;28;19960;-47
2022/08/28 08:55:15;;;;;;;;;;;18.40;99.90;;;;;;5071232;28;19916;-46
2022/08/28 08:57:42;;;;;;;;;;;18.40;99.90;;;;;;5072008;28;20437;-47
2022/08/28 09:00:09;;;;;;;;;;;18.20;99.90;;;;;;5071678;28;20038;-51
2022/08/28 09:02:42;;;;;;;;;;;18.10;99.90;;;;;;5071438;28;19924;-48
2022/08/28 09:05:19;;;;;;;;;;;18.10;99.90;;;;;;5070820;28;20011;-48
2022/08/28 09:07:52;;;;;;;;;;;18.00;99.90;;;;;;5071932;28;19927;-49
2022/08/28 09:10:18;;;;;;;;;;;17.80;99.90;;;;;;5071250;28;20256;-50
2022/08/28 09:12:48;;;;;;;;;;;18.00;99.90;;;;;;5071328;28;20252;-47
2022/08/28 09:15:19;;;;;;;;;;;18.30;99.90;;;;;;5071496;28;19955;-51
2022/08/28 09:17:51;;;;;;;;;;;18.60;99.90;;;;;;5070584;28;20669;-51
2022/08/28 09:20:20;;;;;;;;;;;18.90;99.90;;;;;;5071146;28;19920;-49
2022/08/28 09:22:46;;;;;;;;;;;19.20;99.90;;;;;;5071303;28;20379;-49
2022/08/28 09:25:32;;;;;;;;;;;19.40;99.90;;;;;;5071641;28;19920;-46
2022/08/28 09:28:05;;;;;;;;;;;19.70;99.90;;;;;;5071045;28;19931;-46
2022/08/28 09:30:31;;;;;;;;;;;20.00;99.90;;;;;;5070593;28;19971;-49
2022/08/28 09:32:59;;;;;;;;;;;20.40;99.90;;;;;;5069928;28;19924;-48
2022/08/28 09:35:32;;;;;;;;;;;20.40;99.90;;;;;;5070158;28;19920;-48
2022/08/28 09:38:17;;;;;;;;;;;20.20;99.80;;;;;;5070941;28;19924;-48
2022/08/28 09:43:28;;;;;;;;;;;19.70;99.90;;;;;;5070787;28;19991;-49
2022/08/28 09:45:59;;;;;;;;;;;19.40;99.90;;;;;;5070517;28;19928;-47
2022/08/28 09:48:31;;;;;;;;;;;19.50;99.90;;;;;;5070979;28;20021;-50
2022/08/28 09:51:04;;;;;;;;;;;19.50;99.90;;;;;;5070973;28;19924;-45
2022/08/28 09:53:34;;;;;;;;;;;19.30;99.90;;;;;;5070572;28;19916;-47
2022/08/28 09:56:09;;;;;;;;;;;19.50;99.90;;;;;;5070931;28;20378;-49
2022/08/28 09:58:39;;;;;;;;;;;19.60;99.90;;;;;;5071025;28;19920;-49
2022/08/28 10:01:26;;;;;;;;;;;19.80;99.90;;;;;;5070387;28;20006;-50
2022/08/28 10:04:12;;;;;;;;;;;19.90;99.90;;;;;;5069019;28;19920;-49
2022/08/28 10:06:38;;;;;;;;;;;20.00;99.90;;;;;;5070856;28;19923;-49
2022/08/28 10:09:22;;;;;;;;;;;20.10;99.90;;;;;;5069372;28;19966;-46
2022/08/28 10:12:17;;;;;;;;;;;20.40;99.90;;;;;;5070082;28;19916;-48
2022/08/28 10:14:46;;;;;;;;;;;20.60;99.90;;;;;;5061043;28;19920;-46
2022/08/28 10:17:50;;;;;;;;;;;20.60;98.60;;;;;;5070363;28;19939;-49
2022/08/28 10:20:30;;;;;;;;;;;20.80;98.70;;;;;;5028143;28;20287;-49
2022/08/28 10:22:58;;;;;;;;;;;20.80;96.80;;;;;;5027062;28;19925;-49
2022/08/28 10:25:37;;;;;;;;;;;20.90;97.30;;;;;;5052348;28;20363;-50
2022/08/28 10:28:21;;;;;;;;;;;21.20;96.70;;;;;;5070106;28;19928;-46
2022/08/28 10:31:13;;;;;;;;;;;21.10;96.80;;;;;;5070217;28;19935;-47
2022/08/28 10:34:05;;;;;;;;;;;20.60;97.60;;;;;;5067914;28;19920;-48
2022/08/28 10:36:32;;;;;;;;;;;20.30;98.30;;;;;;5070611;28;20378;-47
2022/08/28 10:39:10;;;;;;;;;;;20.40;98.50;;;;;;5070247;28;19998;-45
2022/08/28 10:41:35;;;;;;;;;;;20.40;98.20;;;;;;5069922;28;19931;-49
2022/08/28 10:44:02;;;;;;;;;;;20.70;97.90;;;;;;5068714;28;19924;-49
2022/08/28 10:46:27;;;;;;;;;;;21.00;97.60;;;;;;5068715;28;19920;-46
2022/08/28 10:48:58;;;;;;;;;;;21.10;97.80;;;;;;5069989;28;19931;-50
2022/08/28 10:51:36;;;;;;;;;;;21.20;97.30;;;;;;5070254;28;19924;-48
2022/08/28 10:54:19;;;;;;;;;;;21.40;96.70;;;;;;5051785;28;19917;-48
2022/08/28 10:56:49;;;;;;;;;;;21.60;96.60;;;;;;5070406;28;20355;-48
2022/08/28 10:59:14;;;;;;;;;;;21.90;96.10;;;;;;5069836;28;19920;-50
2022/08/28 11:01:41;;;;;;;;;;;22.20;96.50;;;;;;5070353;28;19923;-47
2022/08/28 11:04:09;;;;;;;;;;;22.20;95.20;;;;;;5069918;28;19917;-46
2022/08/28 11:06:39;;;;;;;;;;;22.40;94.90;;;;;;5070042;28;20334;-51
2022/08/28 11:09:23;;;;;;;;;;;22.10;94.30;;;;;;5070253;28;20384;-52
2022/08/28 11:11:50;;;;;;;;;;;22.30;94.20;;;;;;5069847;28;20405;-49
2022/08/28 11:14:22;;;;;;;;;;;22.10;94.50;;;;;;5069740;28;19967;-47
2022/08/28 11:16:48;;;;;;;;;;;21.90;95.00;;;;;;5070280;28;19943;-47
2022/08/28 11:19:29;;;;;;;;;;;21.60;94.80;;;;;;5068496;28;19920;-49
2022/08/28 11:22:10;;;;;;;;;;;21.50;94.90;;;;;;5069956;28;19939;-51
2022/08/28 11:24:38;;;;;;;;;;;21.20;95.10;;;;;;5069859;28;19931;-49
2022/08/28 11:27:25;;;;;;;;;;;21.20;96.20;;;;;;5068955;28;20031;-48
2022/08/28 11:30:09;;;;;;;;;;;21.10;95.90;;;;;;5070010;28;20390;-49
2022/08/28 11:32:35;;;;;;;;;;;20.90;96.30;;;;;;5069844;28;19921;-49
2022/08/28 11:35:19;;;;;;;;;;;21.00;96.40;;;;;;5073311;28;19923;-48
2022/08/28 11:37:46;;;;;;;;;;;21.30;95.90;;;;;;5073382;28;19941;-47
2022/08/28 11:40:15;;;;;;;;;;;22.00;95.90;;;;;;5073352;28;19939;-49
2022/08/28 11:42:40;;;;;;;;;;;22.40;94.70;;;;;;5073206;28;19917;-47
2022/08/28 11:45:16;;;;;;;;;;;22.60;92.00;;;;;;5073171;28;19921;-46
2022/08/28 11:47:43;;;;;;;;;;;22.50;91.10;;;;;;5072767;28;19924;-50
2022/08/28 11:50:14;;;;;;;;;;;22.00;91.40;;;;;;5073247;28;20007;-51
2022/08/28 11:52:46;;;;;;;;;;;22.40;92.30;;;;;;5072761;28;19916;-50
2022/08/28 11:55:14;;;;;;;;;;;22.70;91.60;;;;;;5073087;28;20406;-49
2022/08/28 11:57:42;;;;;;;;;;;23.10;90.60;;;;;;5073037;28;19916;-49
2022/08/28 12:00:09;;;;;;;;;;;22.70;90.60;;;;;;5073133;28;20328;-47
2022/08/28 12:02:40;;;;;;;;;;;22.30;90.60;;;;;;5073056;28;19916;-52
2022/08/28 12:05:05;;;;;;;;;;;22.00;91.20;;;;;;5072974;28;20415;-50
2022/08/28 12:07:36;;;;;;;;;;;21.90;91.80;;;;;;5072690;28;20078;-50
2022/08/28 12:10:01;;;;;;;;;;;22.00;92.10;;;;;;5072170;28;19920;-48
2022/08/28 12:12:46;;;;;;;;;;;22.80;92.60;;;;;;5072588;28;20384;-48
2022/08/28 12:15:32;;;;;;;;;;;23.10;91.30;;;;;;5072823;28;19927;-50
2022/08/28 12:18:03;;;;;;;;;;;23.10;90.60;;;;;;5060781;28;19924;-50
2022/08/28 12:20:38;;;;;;;;;;;23.40;89.50;;;;;;5072472;28;19967;-51
2022/08/28 12:23:22;;;;;;;;;;;23.40;89.50;;;;;;5071612;28;19936;-52
2022/08/28 12:25:49;;;;;;;;;;;23.30;90.00;;;;;;5072344;28;19925;-45
2022/08/28 12:28:24;;;;;;;;;;;23.30;90.00;;;;;;5072238;28;19924;-51
2022/08/28 12:30:58;;;;;;;;;;;23.30;90.20;;;;;;5072424;28;19927;-49
2022/08/28 12:33:23;;;;;;;;;;;23.40;89.70;;;;;;5072549;28;20468;-50
2022/08/28 12:35:49;;;;;;;;;;;23.50;89.90;;;;;;5072190;28;20035;-50
2022/08/28 12:38:24;;;;;;;;;;;23.60;90.00;;;;;;5070756;28;20014;-50
2022/08/28 12:40:51;;;;;;;;;;;23.80;89.40;;;;;;5072355;28;20260;-49
2022/08/28 12:43:19;;;;;;;;;;;24.00;88.00;;;;;;5071600;28;19924;-50
2022/08/28 12:45:48;;;;;;;;;;;24.20;86.00;;;;;;5070992;28;20364;-47
2022/08/28 12:48:21;;;;;;;;;;;24.60;86.80;;;;;;5071949;28;19929;-50
2022/08/28 12:50:47;;;;;;;;;;;24.70;82.40;;;;;;5070389;28;19921;-50
2022/08/28 12:53:15;;;;;;;;;;;24.70;83.30;;;;;;5072193;28;20328;-49
2022/08/28 12:55:42;;;;;;;;;;;24.70;84.50;;;;;;5070562;28;19943;-48
2022/08/28 12:58:11;;;;;;;;;;;24.00;84.10;;;;;;5071231;28;19932;-48
2022/08/28 13:00:46;;;;;;;;;;;23.50;84.80;;;;;;5070222;28;19966;-49
2022/08/28 13:03:12;;;;;;;;;;;23.00;86.00;;;;;;5071744;28;19916;-49
2022/08/28 13:05:39;;;;;;;;;;;22.60;86.70;;;;;;5071599;28;19916;-49
2022/08/28 13:08:07;;;;;;;;;;;22.60;88.50;;;;;;5071403;28;19928;-47
2022/08/28 13:10:35;;;;;;;;;;;23.10;90.20;;;;;;5070400;28;20348;-48
2022/08/28 13:13:09;;;;;;;;;;;23.50;89.40;;;;;;5069668;28;20759;-52
2022/08/28 13:15:41;;;;;;;;;;;23.90;88.90;;;;;;5071073;28;19916;-50
2022/08/28 13:18:07;;;;;;;;;;;24.00;86.60;;;;;;5071528;28;19927;-48
2022/08/28 13:20:35;;;;;;;;;;;24.00;86.60;;;;;;5071381;28;19916;-51
2022/08/28 13:23:00;;;;;;;;;;;24.20;85.30;;;;;;5071271;28;19973;-48
2022/08/28 13:25:28;;;;;;;;;;;24.40;84.40;;;;;;5071472;28;20020;-46
2022/08/28 13:28:10;;;;;;;;;;;24.90;84.20;;;;;;5071458;28;19943;-51
2022/08/28 13:30:35;;;;;;;;;;;25.10;84.20;;;;;;5071426;28;19962;-52
2022/08/28 13:33:03;;;;;;;;;;;25.20;83.80;;;;;;5071091;28;19990;-51
2022/08/28 13:35:47;;;;;;;;;;;24.40;84.80;;;;;;5069672;28;19924;-49
2022/08/28 13:38:15;;;;;;;;;;;23.70;84.30;;;;;;5071371;28;19935;-49
2022/08/28 13:40:44;;;;;;;;;;;23.60;85.00;;;;;;5070183;28;19995;-50
2022/08/28 13:43:10;;;;;;;;;;;23.10;85.30;;;;;;5070357;28;19920;-50
2022/08/28 13:45:36;;;;;;;;;;;23.30;85.50;;;;;;5070730;28;19928;-51
2022/08/28 13:48:02;;;;;;;;;;;23.70;85.10;;;;;;5071010;28;20419;-50
2022/08/28 13:50:28;;;;;;;;;;;24.00;85.50;;;;;;5069378;28;19996;-50
2022/08/28 13:52:54;;;;;;;;;;;24.50;83.00;;;;;;5069057;28;20015;-48
2022/08/28 13:55:19;;;;;;;;;;;24.90;81.90;;;;;;5070802;28;19916;-49
2022/08/28 13:57:45;;;;;;;;;;;25.20;83.20;;;;;;5070721;28;20280;-49
2022/08/28 14:00:11;;;;;;;;;;;24.90;81.90;;;;;;5071157;28;19927;-52
2022/08/28 14:05:23;;;;;;;;;;;25.40;82.20;;;;;;5070775;28;19923;-48
2022/08/28 14:07:48;;;;;;;;;;;25.60;80.50;;;;;;5070695;28;19942;-47
2022/08/28 14:10:14;;;;;;;;;;;25.80;80.90;;;;;;5070796;28;19927;-45
2022/08/28 14:12:41;;;;;;;;;;;25.50;79.40;;;;;;5068720;28;20313;-50
2022/08/28 14:15:07;;;;;;;;;;;25.00;79.90;;;;;;5070191;28;19924;-48
2022/08/28 14:17:32;;;;;;;;;;;25.60;80.50;;;;;;5070827;28;19966;-49
2022/08/28 14:19:59;;;;;;;;;;;25.00;79.90;;;;;;5070862;28;20325;-47
2022/08/28 14:22:24;;;;;;;;;;;24.40;81.30;;;;;;5070309;28;19924;-46
2022/08/28 14:24:50;;;;;;;;;;;23.90;82.30;;;;;;5070629;28;19923;-51
2022/08/28 14:27:16;;;;;;;;;;;23.40;83.70;;;;;;5070362;28;20053;-50
2022/08/28 14:29:42;;;;;;;;;;;23.40;84.60;;;;;;5070342;28;20330;-46
2022/08/28 14:32:07;;;;;;;;;;;23.20;85.40;;;;;;5070507;28;19916;-47